Huvudsida
METAR-TAF:

METAR-TAF

Flygplatser :

Al-Hasa, Saudiarabien

latitud: 25-18N, longitud: 049-29E, höjd: 179 m

Aktuellt väderrapport

Denna rapport gjordes för 41 minuter sedan, klockan 19:00 UTC
Vind 5 kt från ost
Temperatur 16°C
Fuktighet 68%
Tryck 1016 hPa
Sikt 10 km eller mer
Inga moln under 1 500 m eller inga cumulonimbus

METAR: OEAH 281900Z 10005KT CAVOK 16/10 Q1016 NOSIG

Tid: 22:41 (19:41 UTC)

Väderprognos

Prognos gäller från 28 kl. 12 UTC till 29 kl. 18 UTC
Vind 12 kt från nord
Sikt: 7000 m
Temporärt
från 28 kl. 12 UTC till 28 kl. 16 UTC
Sikt: 4000 m
högt damm drev
Blir
från 28 kl. 18 UTC till 28 kl. 20 UTC
Vind 6 kt från ost/nordost

TAF: OEAH 2812/2918 36012KT 7000 NSC TEMPO 2812/2816 4000 BLDU BECMG 2818/2820 06006KT

Aktuella väderrapporter och prognoser från 4000 flygplatser (METAR- och TAF-rapporter).

De tillgängliga stationerna syns som gula och röda prickar på kartan.

För musen över prickarna för att se namnen på stationerna.

Klicka sedan för att få väderrapporter och prognoser.

För att ändra kartan: Klicka på de gröna knapparna med ett svart kors på för att zooma in; den gröna knappen med ett streck på för att zooma ut; eller på de gröna pilarna för angränsande kartor.


METAR-TAF: